createdAt,value
2022-08-14T00:02:27.383Z,4.15
2022-08-14T00:04:57.464Z,4.10
2022-08-14T00:07:25.419Z,4.07
2022-08-14T00:10:01.561Z,3.88
2022-08-14T00:12:56.844Z,3.95
2022-08-14T00:15:29.646Z,4.00
2022-08-14T00:18:06.826Z,4.70
2022-08-14T00:20:43.027Z,4.25
2022-08-14T00:23:16.632Z,3.75
2022-08-14T00:25:53.738Z,3.90
2022-08-14T00:28:29.245Z,3.58
2022-08-14T00:31:00.974Z,4.80
2022-08-14T00:33:51.531Z,4.70
2022-08-14T00:36:35.422Z,4.47
2022-08-14T00:39:09.589Z,4.72
2022-08-14T00:41:40.738Z,4.90
2022-08-14T00:44:10.522Z,3.90
2022-08-14T00:46:40.965Z,3.80
2022-08-14T00:49:11.597Z,4.60
2022-08-14T00:51:44.644Z,5.43
2022-08-14T00:54:21.523Z,5.30
2022-08-14T00:56:54.843Z,5.55
2022-08-14T00:59:23.265Z,5.80
2022-08-14T01:01:52.888Z,5.80
2022-08-14T01:04:37.650Z,5.38
2022-08-14T01:07:21.041Z,4.93
2022-08-14T01:09:51.469Z,5.10
2022-08-14T01:12:27.065Z,5.00
2022-08-14T01:14:58.725Z,5.00
2022-08-14T01:17:49.676Z,5.25
2022-08-14T01:20:39.872Z,4.90
2022-08-14T01:23:16.326Z,4.78
2022-08-14T01:25:51.484Z,5.07
2022-08-14T01:28:47.356Z,5.30
2022-08-14T01:31:18.800Z,4.85
2022-08-14T01:35:16.509Z,4.97
2022-08-14T01:36:39.347Z,4.72
2022-08-14T01:39:13.038Z,4.63
2022-08-14T01:41:43.395Z,4.78
2022-08-14T01:44:32.480Z,4.80
2022-08-14T01:47:09.653Z,4.70
2022-08-14T01:49:45.773Z,4.78
2022-08-14T01:52:34.245Z,4.85
2022-08-14T01:55:06.731Z,5.60
2022-08-14T01:58:00.841Z,4.90
2022-08-14T02:00:27.674Z,4.93
2022-08-14T02:02:57.146Z,5.35
2022-08-14T02:05:29.463Z,5.20
2022-08-14T02:08:09.763Z,5.80
2022-08-14T02:10:46.604Z,5.15
2022-08-14T02:13:17.293Z,4.93
2022-08-14T02:15:48.387Z,5.28
2022-08-14T02:18:18.200Z,5.80
2022-08-14T02:20:47.846Z,5.13
2022-08-14T02:23:16.506Z,5.50
2022-08-14T02:26:24.347Z,4.75
2022-08-14T02:28:58.306Z,5.13
2022-08-14T02:31:42.641Z,5.78
2022-08-14T02:34:20.105Z,5.40
2022-08-14T02:37:05.157Z,5.38
2022-08-14T02:39:37.132Z,5.25
2022-08-14T02:42:13.233Z,5.97
2022-08-14T02:44:49.437Z,5.15
2022-08-14T02:47:21.045Z,6.22
2022-08-14T02:49:50.493Z,6.10
2022-08-14T02:52:56.000Z,5.63
2022-08-14T02:55:11.890Z,6.63
2022-08-14T02:57:58.108Z,5.65
2022-08-14T03:00:33.243Z,5.90
2022-08-14T03:03:07.592Z,6.22
2022-08-14T03:05:41.207Z,5.32
2022-08-14T03:08:15.750Z,5.82
2022-08-14T03:10:49.025Z,5.85
2022-08-14T03:13:21.397Z,5.60
2022-08-14T03:15:55.572Z,6.20
2022-08-14T03:18:31.217Z,5.75
2022-08-14T03:21:07.628Z,5.70
2022-08-14T03:23:38.614Z,6.65
2022-08-14T03:26:13.241Z,6.03
2022-08-14T03:28:53.133Z,6.55
2022-08-14T03:31:22.478Z,6.70
2022-08-14T03:33:54.586Z,6.43
2022-08-14T03:37:37.770Z,5.35
2022-08-14T03:39:22.290Z,5.72
2022-08-14T03:41:53.811Z,5.10
2022-08-14T03:45:26.101Z,5.80
2022-08-14T03:47:15.445Z,6.45
2022-08-14T03:49:49.804Z,6.18
2022-08-14T03:52:38.871Z,6.00
2022-08-14T03:55:08.860Z,6.45
2022-08-14T03:57:37.967Z,6.00
2022-08-14T04:00:40.533Z,6.05
2022-08-14T04:03:02.397Z,5.13
2022-08-14T04:05:42.818Z,6.40
2022-08-14T04:08:36.258Z,6.25
2022-08-14T04:11:07.872Z,6.50
2022-08-14T04:13:41.162Z,6.22
2022-08-14T04:16:13.561Z,5.63
2022-08-14T04:18:42.780Z,5.78
2022-08-14T04:21:11.754Z,6.57
2022-08-14T04:23:40.727Z,6.90
2022-08-14T04:26:14.517Z,6.30
2022-08-14T04:29:08.582Z,5.85
2022-08-14T04:32:58.245Z,5.72
2022-08-14T04:34:27.110Z,6.18
2022-08-14T04:37:22.425Z,6.00
2022-08-14T04:40:11.709Z,6.25
2022-08-14T04:42:58.177Z,6.03
2022-08-14T04:45:32.834Z,5.70
2022-08-14T04:48:38.962Z,5.78
2022-08-14T04:51:04.069Z,6.40
2022-08-14T04:53:36.039Z,6.35
2022-08-14T04:56:10.607Z,6.07
2022-08-14T04:59:01.562Z,6.68
2022-08-14T05:01:39.669Z,6.05
2022-08-14T05:04:16.154Z,6.07
2022-08-14T05:06:44.885Z,5.80
2022-08-14T05:09:14.363Z,5.80
2022-08-14T05:11:44.223Z,6.38
2022-08-14T05:14:34.155Z,6.28
2022-08-14T05:17:03.567Z,5.75
2022-08-14T05:19:33.580Z,6.45
2022-08-14T05:22:16.720Z,6.63
2022-08-14T05:24:51.334Z,6.00
2022-08-14T05:27:22.996Z,7.15
2022-08-14T05:29:55.097Z,5.97
2022-08-14T05:32:27.535Z,6.68
2022-08-14T05:34:59.169Z,6.68
2022-08-14T05:37:29.802Z,6.32
2022-08-14T05:40:00.476Z,6.28
2022-08-14T05:42:34.323Z,7.72
2022-08-14T05:45:05.016Z,6.18
2022-08-14T05:47:41.332Z,6.38
2022-08-14T05:50:17.535Z,6.05
2022-08-14T05:52:50.720Z,6.28
2022-08-14T05:55:22.193Z,6.15
2022-08-14T05:57:52.937Z,6.55
2022-08-14T06:00:29.948Z,6.80
2022-08-14T06:03:06.867Z,5.38
2022-08-14T06:05:38.696Z,5.88
2022-08-14T06:08:08.785Z,7.07
2022-08-14T06:11:02.749Z,7.00
2022-08-14T06:13:44.973Z,6.40
2022-08-14T06:16:15.511Z,6.60
2022-08-14T06:18:47.661Z,5.90
2022-08-14T06:21:17.730Z,5.80
2022-08-14T06:23:48.839Z,5.88
2022-08-14T06:26:20.619Z,6.60
2022-08-14T06:28:52.067Z,6.20
2022-08-14T06:31:21.069Z,5.63
2022-08-14T06:35:10.123Z,6.65
2022-08-14T06:36:39.792Z,6.55
2022-08-14T06:39:10.504Z,7.25
2022-08-14T06:41:58.176Z,10.10
2022-08-14T06:44:32.929Z,27.23
2022-08-14T06:47:02.654Z,26.88
2022-08-14T06:49:31.039Z,9.07
2022-08-14T06:52:15.102Z,12.27
2022-08-14T06:54:44.202Z,21.92
2022-08-14T06:57:13.194Z,18.23
2022-08-14T06:59:42.119Z,20.67
2022-08-14T07:02:28.837Z,8.93
2022-08-14T07:05:20.873Z,11.77
2022-08-14T07:07:51.138Z,7.78
2022-08-14T07:10:25.052Z,15.40
2022-08-14T07:13:01.387Z,14.13
2022-08-14T07:15:33.715Z,11.77
2022-08-14T07:18:03.675Z,11.32
2022-08-14T07:20:33.949Z,10.80
2022-08-14T07:23:09.227Z,8.75
2022-08-14T07:25:39.822Z,7.90
2022-08-14T07:28:12.901Z,8.18
2022-08-14T07:30:51.573Z,7.05
2022-08-14T07:33:24.812Z,6.70
2022-08-14T07:36:00.873Z,6.50
2022-08-14T07:38:37.649Z,6.88
2022-08-14T07:41:14.522Z,6.70
2022-08-14T07:43:47.640Z,7.20
2022-08-14T07:46:29.365Z,6.45
2022-08-14T07:48:59.289Z,6.45
2022-08-14T07:51:36.743Z,6.22
2022-08-14T07:54:11.009Z,6.80
2022-08-14T07:56:48.238Z,5.93
2022-08-14T07:59:40.618Z,5.85
2022-08-14T08:02:18.979Z,5.67
2022-08-14T08:04:53.005Z,6.63
2022-08-14T08:07:23.766Z,6.15
2022-08-14T08:09:57.193Z,6.18
2022-08-14T08:12:31.204Z,6.68
2022-08-14T08:15:07.229Z,5.95
2022-08-14T08:17:53.531Z,6.13
2022-08-14T08:20:30.224Z,5.78
2022-08-14T08:23:00.636Z,5.65
2022-08-14T08:25:40.049Z,6.70
2022-08-14T08:28:19.823Z,5.82
2022-08-14T08:30:56.222Z,5.75
2022-08-14T08:33:32.279Z,6.22
2022-08-14T08:36:12.744Z,5.45
2022-08-14T08:39:18.062Z,5.82
2022-08-14T08:41:43.821Z,6.10
2022-08-14T08:44:17.458Z,5.97
2022-08-14T08:47:05.778Z,4.78
2022-08-14T08:49:52.583Z,5.10
2022-08-14T08:52:31.990Z,4.97
2022-08-14T08:55:04.960Z,5.03
2022-08-14T08:57:37.932Z,4.80
2022-08-14T09:00:25.450Z,5.55
2022-08-14T09:02:59.218Z,4.70
2022-08-14T09:05:28.879Z,4.95
2022-08-14T09:08:31.857Z,5.63
2022-08-14T09:11:00.057Z,5.15
2022-08-14T09:13:33.163Z,10.18
2022-08-14T09:16:18.678Z,20.73
2022-08-14T09:18:48.094Z,23.52
2022-08-14T09:21:16.578Z,17.25
2022-08-14T09:24:26.541Z,25.17
2022-08-14T09:26:36.055Z,18.15
2022-08-14T09:29:07.946Z,8.93
2022-08-14T09:31:53.389Z,11.95
2022-08-14T09:34:37.994Z,20.52
2022-08-14T09:37:35.786Z,13.13
2022-08-14T09:40:10.164Z,7.22
2022-08-14T09:42:53.791Z,7.18
2022-08-14T09:45:40.111Z,7.55
2022-08-14T09:48:27.717Z,8.68
2022-08-14T09:54:18.916Z,18.08
2022-08-14T09:56:45.678Z,15.13
2022-08-14T09:59:16.629Z,19.52
2022-08-14T10:01:52.651Z,21.83
2022-08-14T10:04:33.669Z,23.58
2022-08-14T10:07:04.134Z,23.97
2022-08-14T10:09:33.331Z,18.90
2022-08-14T10:12:04.770Z,29.52
2022-08-14T10:14:37.156Z,25.98
2022-08-14T10:17:08.438Z,23.50
2022-08-14T10:19:49.034Z,23.63
2022-08-14T10:23:11.941Z,20.83
2022-08-14T10:25:12.291Z,10.68
2022-08-14T10:27:40.257Z,5.90
2022-08-14T10:30:22.435Z,5.72
2022-08-14T10:32:55.886Z,12.27
2022-08-14T10:35:31.796Z,10.23
2022-08-14T10:38:03.488Z,15.55
2022-08-14T10:40:38.742Z,20.27
2022-08-14T10:43:23.343Z,11.20
2022-08-14T10:45:59.644Z,17.75
2022-08-14T10:48:37.238Z,29.10
2022-08-14T10:51:10.352Z,31.70
2022-08-14T10:53:39.235Z,19.90
2022-08-14T10:56:21.537Z,20.05
2022-08-14T11:01:38.651Z,7.00
2022-08-14T11:04:27.722Z,17.42
2022-08-14T11:06:56.742Z,14.63
2022-08-14T11:09:26.040Z,6.60
2022-08-14T11:12:33.314Z,8.38
2022-08-14T11:14:59.474Z,4.97
2022-08-14T11:17:32.861Z,5.05
2022-08-14T11:20:07.018Z,8.70
2022-08-14T11:22:56.392Z,7.03
2022-08-14T11:25:36.684Z,5.10
2022-08-14T11:28:14.703Z,5.60
2022-08-14T11:30:54.254Z,6.10
2022-08-14T11:33:24.487Z,7.47
2022-08-14T11:35:59.551Z,6.93
2022-08-14T11:38:29.233Z,6.05
2022-08-14T11:40:58.662Z,5.18
2022-08-14T11:43:30.548Z,5.80
2022-08-14T11:45:59.320Z,6.47
2022-08-14T11:49:01.658Z,8.57
2022-08-14T11:51:24.007Z,11.02
2022-08-14T11:53:58.478Z,22.00
2022-08-14T11:56:30.586Z,11.63
2022-08-14T11:58:59.410Z,12.17
2022-08-14T12:01:32.693Z,32.08
2022-08-14T12:04:32.585Z,23.40
2022-08-14T12:07:03.545Z,8.48
2022-08-14T12:09:33.278Z,8.75
2022-08-14T12:12:03.617Z,14.00
2022-08-14T12:14:35.097Z,19.80
2022-08-14T12:17:12.868Z,17.05
2022-08-14T12:19:51.081Z,32.85
2022-08-14T12:22:34.026Z,67.88
2022-08-14T12:25:08.478Z,36.72
2022-08-14T12:27:46.618Z,27.67
2022-08-14T12:30:29.255Z,25.80
2022-08-14T12:33:08.601Z,24.58
2022-08-14T12:35:41.283Z,13.10
2022-08-14T12:38:19.550Z,11.90
2022-08-14T12:40:50.321Z,20.30
2022-08-14T12:43:19.766Z,28.90
2022-08-14T12:45:52.281Z,22.42
2022-08-14T12:48:31.956Z,22.27
2022-08-14T12:51:00.726Z,16.60
2022-08-14T12:53:38.699Z,25.80
2022-08-14T12:56:22.046Z,15.60
2022-08-14T12:58:58.570Z,37.55
2022-08-14T13:01:30.966Z,16.33
2022-08-14T13:04:10.418Z,22.02
2022-08-14T13:06:40.408Z,37.85
2022-08-14T13:09:11.488Z,24.67
2022-08-14T13:11:44.956Z,24.60
2022-08-14T13:14:17.269Z,36.58
2022-08-14T13:16:50.278Z,10.85
2022-08-14T13:19:19.892Z,9.70
2022-08-14T13:21:58.680Z,5.28
2022-08-14T13:24:40.021Z,16.83
2022-08-14T13:27:10.818Z,13.82
2022-08-14T13:29:46.761Z,39.72
2022-08-14T13:32:16.320Z,16.90
2022-08-14T13:34:48.397Z,15.02
2022-08-14T13:37:17.429Z,32.75
2022-08-14T13:39:56.200Z,18.58
2022-08-14T13:42:30.751Z,19.33
2022-08-14T13:45:02.829Z,16.40
2022-08-14T13:47:33.658Z,12.60
2022-08-14T13:50:05.002Z,8.52
2022-08-14T13:52:53.497Z,7.45
2022-08-14T13:55:27.883Z,5.90
2022-08-14T13:58:04.157Z,10.02
2022-08-14T14:00:51.807Z,18.83
2022-08-14T14:03:25.394Z,9.80
2022-08-14T14:05:59.163Z,6.72
2022-08-14T14:08:43.544Z,7.20
2022-08-14T14:11:20.408Z,7.32
2022-08-14T14:13:49.460Z,6.32
2022-08-14T14:16:26.122Z,8.27
2022-08-14T14:19:06.773Z,19.95
2022-08-14T14:21:40.766Z,17.00
2022-08-14T14:24:15.443Z,16.90
2022-08-14T14:26:50.609Z,15.55
2022-08-14T14:29:24.028Z,19.30
2022-08-14T14:31:54.942Z,10.20
2022-08-14T14:34:29.483Z,7.50
2022-08-14T14:37:03.086Z,7.72
2022-08-14T14:39:37.427Z,11.23
2022-08-14T14:42:31.959Z,5.75
2022-08-14T14:45:06.632Z,7.07
2022-08-14T14:47:35.644Z,5.10
2022-08-14T14:50:05.552Z,5.68
2022-08-14T14:52:37.078Z,5.05
2022-08-14T14:55:12.559Z,5.65
2022-08-14T14:57:52.093Z,5.10
2022-08-14T15:00:30.962Z,7.70
2022-08-14T15:03:00.159Z,6.50
2022-08-14T15:05:28.855Z,5.55
2022-08-14T15:07:57.838Z,8.75
2022-08-14T15:10:34.271Z,5.53
2022-08-14T15:13:07.235Z,4.75
2022-08-14T15:15:37.392Z,8.32
2022-08-14T15:18:36.389Z,6.70
2022-08-14T15:21:01.482Z,6.45
2022-08-14T15:23:32.233Z,6.70
2022-08-14T15:26:13.443Z,6.78
2022-08-14T15:29:02.947Z,5.85
2022-08-14T15:31:36.210Z,5.18
2022-08-14T15:34:45.104Z,4.43
2022-08-14T15:37:04.421Z,5.88
2022-08-14T15:39:34.040Z,6.05
2022-08-14T15:42:14.730Z,5.13
2022-08-14T15:44:58.431Z,4.93
2022-08-14T15:47:33.304Z,4.60
2022-08-14T15:50:05.921Z,4.80
2022-08-14T15:52:44.858Z,5.57
2022-08-14T15:55:16.696Z,5.15
2022-08-14T15:58:01.916Z,5.85
2022-08-14T16:00:53.866Z,5.07
2022-08-14T16:03:27.008Z,5.13
2022-08-14T16:06:02.864Z,5.70
2022-08-14T16:08:31.060Z,5.20
2022-08-14T16:11:01.524Z,6.13
2022-08-14T16:13:41.629Z,5.30
2022-08-14T16:16:47.657Z,5.63
2022-08-14T16:19:10.869Z,5.78
2022-08-14T16:22:01.516Z,5.15
2022-08-14T16:24:35.954Z,5.00
2022-08-14T16:27:38.681Z,5.32
2022-08-14T16:30:24.734Z,4.95
2022-08-14T16:32:59.155Z,4.80
2022-08-14T16:35:43.304Z,5.05
2022-08-14T16:38:44.886Z,4.75
2022-08-14T16:43:53.384Z,5.32
2022-08-14T16:46:23.537Z,5.32
2022-08-14T16:48:58.527Z,4.97
2022-08-14T16:51:27.883Z,5.25
2022-08-14T16:53:58.906Z,4.90
2022-08-14T16:56:34.939Z,5.35
2022-08-14T16:59:07.250Z,5.10
2022-08-14T17:01:37.359Z,5.67
2022-08-14T17:04:14.984Z,7.85
2022-08-14T17:06:55.056Z,8.82
2022-08-14T17:09:32.361Z,12.80
2022-08-14T17:12:08.243Z,18.85
2022-08-14T17:14:55.001Z,23.33
2022-08-14T17:17:25.906Z,23.95
2022-08-14T17:20:25.068Z,28.65
2022-08-14T17:22:53.060Z,28.08
2022-08-14T17:25:24.492Z,15.40
2022-08-14T17:28:49.965Z,23.05
2022-08-14T17:33:33.827Z,22.85
2022-08-14T17:36:21.282Z,22.27
2022-08-14T17:39:07.777Z,29.65
2022-08-14T17:41:38.745Z,25.37
2022-08-14T17:44:34.446Z,26.75
2022-08-14T17:47:14.750Z,31.17
2022-08-14T17:49:47.667Z,30.52
2022-08-14T17:52:34.904Z,43.70
2022-08-14T17:56:02.413Z,50.63
2022-08-14T17:58:02.162Z,33.13
2022-08-14T18:00:52.366Z,30.63
2022-08-14T18:03:48.215Z,21.63
2022-08-14T18:06:40.199Z,12.30
2022-08-14T18:09:24.865Z,9.52
2022-08-14T18:11:58.714Z,10.57
2022-08-14T18:14:48.768Z,13.40
2022-08-14T18:17:23.970Z,22.20
2022-08-14T18:19:57.694Z,26.95
2022-08-14T18:22:39.489Z,26.27
2022-08-14T18:25:18.246Z,20.13
2022-08-14T18:27:51.972Z,19.45
2022-08-14T18:30:33.336Z,20.73
2022-08-14T18:33:20.954Z,23.38
2022-08-14T18:35:59.980Z,17.70
2022-08-14T18:38:45.782Z,10.57
2022-08-14T18:41:36.827Z,7.03
2022-08-14T18:44:10.535Z,6.68
2022-08-14T18:47:28.807Z,6.07
2022-08-14T18:50:26.298Z,6.65
2022-08-14T18:53:06.915Z,6.55
2022-08-14T18:55:53.145Z,7.25
2022-08-14T18:58:31.328Z,6.70
2022-08-14T19:01:04.631Z,6.60
2022-08-14T19:03:57.367Z,7.00
2022-08-14T19:06:55.953Z,7.78
2022-08-14T19:09:58.032Z,7.85
2022-08-14T19:13:04.836Z,7.13
2022-08-14T19:15:36.948Z,6.78
2022-08-14T19:18:25.973Z,6.63
2022-08-14T19:20:59.417Z,7.07
2022-08-14T19:23:43.308Z,6.85
2022-08-14T19:26:35.904Z,6.93
2022-08-14T19:29:37.689Z,6.80
2022-08-14T19:32:42.543Z,8.00
2022-08-14T19:35:49.351Z,9.15
2022-08-14T19:38:52.931Z,10.93
2022-08-14T19:41:29.623Z,9.48
2022-08-14T19:44:10.827Z,9.55
2022-08-14T19:47:02.501Z,8.68
2022-08-14T19:50:08.636Z,11.18
2022-08-14T19:52:35.237Z,8.60
2022-08-14T19:55:17.640Z,10.48
2022-08-14T19:57:51.986Z,10.60
2022-08-14T20:00:30.337Z,7.75
2022-08-14T20:03:11.887Z,8.95
2022-08-14T20:05:46.311Z,8.32
2022-08-14T20:11:20.705Z,8.50
2022-08-14T20:14:10.356Z,9.68
2022-08-14T20:16:42.950Z,9.20
2022-08-14T20:19:24.854Z,11.27
2022-08-14T20:22:34.627Z,6.53
2022-08-14T20:24:55.303Z,8.90
2022-08-14T20:27:39.617Z,6.82
2022-08-14T20:30:33.931Z,6.95
2022-08-14T20:33:11.042Z,6.72
2022-08-14T20:35:46.943Z,6.45
2022-08-14T20:38:29.247Z,7.35
2022-08-14T20:41:06.355Z,8.05
2022-08-14T20:43:55.751Z,8.57
2022-08-14T20:46:29.927Z,7.32
2022-08-14T20:49:02.195Z,6.53
2022-08-14T20:51:37.339Z,6.53
2022-08-14T20:54:09.063Z,6.60
2022-08-14T20:56:40.474Z,10.25
2022-08-14T20:59:17.851Z,11.60
2022-08-14T21:01:55.484Z,13.50
2022-08-14T21:04:28.461Z,15.80
2022-08-14T21:07:24.696Z,13.93
2022-08-14T21:10:04.974Z,16.17
2022-08-14T21:12:35.981Z,19.85
2022-08-14T21:15:10.044Z,20.25
2022-08-14T21:17:43.221Z,20.90
2022-08-14T21:20:25.226Z,17.80
2022-08-14T21:23:00.535Z,13.05
2022-08-14T21:25:31.525Z,9.48
2022-08-14T21:28:05.923Z,11.05
2022-08-14T21:30:51.512Z,9.38
2022-08-14T21:33:23.409Z,9.45
2022-08-14T21:35:54.849Z,9.07
2022-08-14T21:38:33.859Z,9.55
2022-08-14T21:41:43.531Z,8.95
2022-08-14T21:44:18.168Z,8.15
2022-08-14T21:46:53.368Z,8.93
2022-08-14T21:49:33.809Z,8.38
2022-08-14T21:52:51.079Z,8.15
2022-08-14T21:55:00.639Z,7.32
2022-08-14T21:57:56.804Z,7.70
2022-08-14T22:00:42.262Z,7.13
2022-08-14T22:03:18.088Z,7.20
2022-08-14T22:05:51.484Z,8.45
2022-08-14T22:08:26.936Z,8.02
2022-08-14T22:10:59.221Z,9.00
2022-08-14T22:13:33.806Z,14.25
2022-08-14T22:17:03.326Z,12.38
2022-08-14T22:19:10.466Z,11.65
2022-08-14T22:21:44.132Z,11.75
2022-08-14T22:27:09.166Z,14.80
2022-08-14T22:29:38.775Z,14.77
2022-08-14T22:32:10.717Z,16.60
2022-08-14T22:34:48.118Z,17.27
2022-08-14T22:37:19.874Z,21.83
2022-08-14T22:40:50.731Z,15.10
2022-08-14T22:43:00.656Z,15.65
2022-08-14T22:45:36.515Z,15.98
2022-08-14T22:48:10.808Z,13.63
2022-08-14T22:50:53.407Z,11.88
2022-08-14T22:53:24.210Z,11.38
2022-08-14T22:55:58.094Z,18.67
2022-08-14T22:58:31.644Z,19.13
2022-08-14T23:01:10.632Z,19.88
2022-08-14T23:03:44.077Z,18.30
2022-08-14T23:07:03.076Z,16.23
2022-08-14T23:09:35.442Z,12.60
2022-08-14T23:11:58.832Z,11.05
2022-08-14T23:14:32.917Z,10.73
2022-08-14T23:17:06.221Z,9.23
2022-08-14T23:19:44.586Z,8.25
2022-08-14T23:22:17.100Z,7.88
2022-08-14T23:24:57.898Z,7.45
2022-08-14T23:28:02.669Z,7.78
2022-08-14T23:30:33.928Z,7.13
2022-08-14T23:33:07.563Z,7.20
2022-08-14T23:35:58.672Z,7.68
2022-08-14T23:38:34.431Z,6.93
2022-08-14T23:41:12.853Z,7.00
2022-08-14T23:43:51.458Z,7.13
2022-08-14T23:46:23.798Z,6.63
2022-08-14T23:49:07.427Z,6.38
2022-08-14T23:51:44.309Z,6.40
2022-08-14T23:54:47.521Z,6.75
2022-08-14T23:57:10.250Z,6.65
2022-08-14T23:59:45.114Z,7.50
